Time;durP1;ratioP1;P1;durP2;ratioP2;P2;SDS_P1;SDS_P2;PMS_P1;PMS_P2;Temp;Humidity;BMP_temperature;BMP_pressure;BME280_temperature;BME280_humidity;BME280_pressure;Samples;Min_cycle;Max_cycle;Signal;HPM_P1;HPM_P2
2021/06/12 00:00:32;;;;;;;;;;;;;;;;;;2080954;28;46010;-74
2021/06/12 00:01:34;;;;;;;;;;;;;;;;;;2089431;28;47012;-72
2021/06/12 00:02:36;;;;;;;;;;;;;;;;;;2096903;28;44964;-72
2021/06/12 00:03:37;;;;;;;;;;;;;;;;;;2081428;28;46171;-73
2021/06/12 00:04:39;;;;;;;;;;;;;;;;;;2081229;28;44415;-72
2021/06/12 00:05:40;;;;;;;;;;;;;;;;;;2081510;28;46177;-72
2021/06/12 00:06:42;;;;;;;;;;;;;;;;;;2081481;28;46183;-73
2021/06/12 00:07:43;;;;;;;;;;;;;;;;;;2097483;28;47052;-73
2021/06/12 00:08:45;;;;;;;;;;;;;;;;;;2097099;28;45953;-73
2021/06/12 00:09:46;;;;;;;;;;;;;;;;;;2097101;28;46116;-72
2021/06/12 00:10:48;;;;;;;;;;;;;;;;;;2097229;28;46898;-73
2021/06/12 00:11:49;;;;;;;;;;;;;;;;;;2081017;28;45890;-74
2021/06/12 00:12:51;;;;;;;;;;;;;;;;;;2081471;28;45638;-73
2021/06/12 00:13:53;;;;;;;;;;;;;;;;;;2080786;28;44566;-72
2021/06/12 00:14:54;;;;;;;;;;;;;;;;;;2072768;28;45917;-73
2021/06/12 00:15:55;;;;;;;;;;;;;;;;;;2072602;28;44517;-73
2021/06/12 00:16:57;;;;;;;;;;;;;;;;;;2081092;28;45764;-72
2021/06/12 00:17:58;;;;;;;;;;;;;;;;;;2081322;28;43348;-73
2021/06/12 00:19:00;;;;;;;;;;;;;;;;;;2096876;28;44323;-73
2021/06/12 00:20:02;;;;;;;;;;;;;;;;;;2096850;28;43218;-73
2021/06/12 00:21:04;;;;;;;;;;;;;;;;;;2088675;28;45455;-73
2021/06/12 00:22:05;;;;;;;;;;;;;;;;;;2097100;28;45694;-73
2021/06/12 00:23:07;;;;;;;;;;;;;;;;;;2097333;28;43636;-74
2021/06/12 00:24:09;;;;;;;;;;;;;;;;;;2097364;28;45699;-74
2021/06/12 00:25:11;;;;;;;;;;;;;;;;;;2096997;28;43037;-74
2021/06/12 00:26:13;;;;;;;;;;;;;;;;;;2081320;28;44194;-74
2021/06/12 00:27:14;;;;;;;;;;;;;;;;;;2080630;28;44194;-74
2021/06/12 00:28:15;;;;;;;;;;;;;;;;;;2097127;28;45562;-75
2021/06/12 00:29:17;;;;;;;;;;;;;;;;;;2096936;28;45382;-74
2021/06/12 00:30:18;;;;;;;;;;;;;;;;;;2080670;28;45354;-74
2021/06/12 00:31:20;;;;;;;;;;;;;;;;;;2080789;28;44984;-74
2021/06/12 00:32:21;;;;;;;;;;;;;;;;;;2096958;28;44634;-72
2021/06/12 00:33:22;;;;;;;;;;;;;;;;;;2096959;28;46231;-72
2021/06/12 00:34:24;;;;;;;;;;;;;;;;;;2096787;28;45822;-72
2021/06/12 00:35:26;;;;;;;;;;;;;;;;;;2097235;28;41683;-74
2021/06/12 00:36:28;;;;;;;;;;;;;;;;;;2088608;28;44061;-74
2021/06/12 00:37:29;;;;;;;;;;;;;;;;;;2081259;28;45382;-74
2021/06/12 00:38:30;;;;;;;;;;;;;;;;;;2097338;28;45515;-74
2021/06/12 00:39:32;;;;;;;;;;;;;;;;;;2096804;28;46533;-74
2021/06/12 00:40:34;;;;;;;;;;;;;;;;;;2096819;28;44277;-73
2021/06/12 00:41:35;;;;;;;;;;;;;;;;;;2096872;28;44182;-72
2021/06/12 00:42:40;;;;;;;;;;;;;;;;;;2080358;28;45440;-73
2021/06/12 00:43:42;;;;;;;;;;;;;;;;;;2080475;28;46749;-73
2021/06/12 00:44:43;;;;;;;;;;;;;;;;;;2080421;28;45339;-73
2021/06/12 00:45:46;;;;;;;;;;;;;;;;;;2080524;28;46563;-73
2021/06/12 00:46:48;;;;;;;;;;;;;;;;;;2081100;28;46682;-73
2021/06/12 00:47:51;;;;;;;;;;;;;;;;;;2097205;28;45797;-73
2021/06/12 00:48:53;;;;;;;;;;;;;;;;;;2095749;28;45317;-73
2021/06/12 00:49:54;;;;;;;;;;;;;;;;;;2097212;28;46620;-73
2021/06/12 00:50:56;;;;;;;;;;;;;;;;;;2096958;28;46601;-74
2021/06/12 00:51:57;;;;;;;;;;;;;;;;;;2097014;28;45648;-72
2021/06/12 00:52:59;;;;;;;;;;;;;;;;;;2088793;28;45431;-73
2021/06/12 00:54:00;;;;;;;;;;;;;;;;;;2080560;28;45498;-72
2021/06/12 00:55:02;;;;;;;;;;;;;;;;;;2080582;28;46903;-73
2021/06/12 00:56:08;;;;;;;;;;;;;;;;;;2089089;28;44134;-72
2021/06/12 00:57:09;;;;;;;;;;;;;;;;;;2095843;28;46964;-72
2021/06/12 00:58:13;;;;;;;;;;;;;;;;;;2097213;28;46816;-72
2021/06/12 00:59:14;;;;;;;;;;;;;;;;;;2088177;28;44241;-72
2021/06/12 01:00:22;;;;;;;;;;;;;;;;;;2073737;28;46303;-73
2021/06/12 01:01:24;;;;;;;;;;;;;;;;;;2089802;28;43690;-73
2021/06/12 01:02:25;;;;;;;;;;;;;;;;;;2097235;28;46204;-72
2021/06/12 01:03:28;;;;;;;;;;;;;;;;;;2080457;28;44452;-72
2021/06/12 01:04:29;;;;;;;;;;;;;;;;;;2080629;28;46938;-73
2021/06/12 01:05:31;;;;;;;;;;;;;;;;;;2072267;28;46094;-72
2021/06/12 01:06:32;;;;;;;;;;;;;;;;;;2089292;28;44891;-72
2021/06/12 01:07:34;;;;;;;;;;;;;;;;;;2088706;28;47261;-72
2021/06/12 01:08:36;;;;;;;;;;;;;;;;;;2072579;28;45928;-72
2021/06/12 01:09:37;;;;;;;;;;;;;;;;;;2088938;28;45917;-72
2021/06/12 01:10:39;;;;;;;;;;;;;;;;;;2088614;28;46831;-72
2021/06/12 01:11:59;;;;;;;;;;;;;;;;;;2080161;28;45872;-72
2021/06/12 01:13:08;;;;;;;;;;;;;;;;;;2097248;28;46389;-73
2021/06/12 01:14:13;;;;;;;;;;;;;;;;;;2087756;28;45919;-73
2021/06/12 01:15:16;;;;;;;;;;;;;;;;;;2089409;28;46596;-73
2021/06/12 01:16:23;;;;;;;;;;;;;;;;;;2096534;28;45760;-73
2021/06/12 01:17:33;;;;;;;;;;;;;;;;;;2087937;28;46089;-73
2021/06/12 01:18:36;;;;;;;;;;;;;;;;;;2080649;28;45907;-72
2021/06/12 01:19:37;;;;;;;;;;;;;;;;;;2081228;28;45732;-74
2021/06/12 01:20:42;;;;;;;;;;;;;;;;;;2081020;28;47179;-74
2021/06/12 01:21:44;;;;;;;;;;;;;;;;;;2097071;28;45816;-74
2021/06/12 01:22:46;;;;;;;;;;;;;;;;;;2088034;28;44448;-73
2021/06/12 01:24:09;;;;;;;;;;;;;;;;;;2080872;28;44736;-73
2021/06/12 01:25:16;;;;;;;;;;;;;;;;;;2097009;28;45276;-71
2021/06/12 01:26:32;;;;;;;;;;;;;;;;;;2094927;28;45099;-71
2021/06/12 01:27:44;;;;;;;;;;;;;;;;;;2081127;28;43776;-71
2021/06/12 01:28:46;;;;;;;;;;;;;;;;;;2096696;28;44520;-72
2021/06/12 01:30:06;;;;;;;;;;;;;;;;;;2097132;28;42766;-71
2021/06/12 01:31:08;;;;;;;;;;;;;;;;;;2080845;28;44694;-71
2021/06/12 01:32:10;;;;;;;;;;;;;;;;;;2080412;28;44296;-72
2021/06/12 01:33:13;;;;;;;;;;;;;;;;;;2072179;28;44610;-72
2021/06/12 01:34:15;;;;;;;;;;;;;;;;;;2072772;28;43586;-71
2021/06/12 01:35:31;;;;;;;;;;;;;;;;;;2072192;28;43080;-71
2021/06/12 01:36:33;;;;;;;;;;;;;;;;;;2080504;28;45430;-71
2021/06/12 01:37:36;;;;;;;;;;;;;;;;;;2088586;28;46496;-71
2021/06/12 01:38:43;;;;;;;;;;;;;;;;;;2096126;28;45468;-71
2021/06/12 01:39:46;;;;;;;;;;;;;;;;;;2082564;28;44967;-71
2021/06/12 01:40:48;;;;;;;;;;;;;;;;;;2098202;28;45464;-71
2021/06/12 01:41:51;;;;;;;;;;;;;;;;;;2089852;28;45764;-71
2021/06/12 01:42:53;;;;;;;;;;;;;;;;;;2073892;28;44726;-71
2021/06/12 01:43:55;;;;;;;;;;;;;;;;;;2073973;28;43308;-71
2021/06/12 01:44:57;;;;;;;;;;;;;;;;;;2082378;28;42201;-71
2021/06/12 01:46:02;;;;;;;;;;;;;;;;;;2083046;28;42628;-71
2021/06/12 01:47:03;;;;;;;;;;;;;;;;;;2082328;28;44645;-71
2021/06/12 01:48:05;;;;;;;;;;;;;;;;;;2073265;28;47211;-73
2021/06/12 01:49:07;;;;;;;;;;;;;;;;;;2073836;28;46791;-72
2021/06/12 01:50:10;;;;;;;;;;;;;;;;;;2073794;28;44154;-73
2021/06/12 01:51:11;;;;;;;;;;;;;;;;;;2074028;28;45478;-73
2021/06/12 01:52:13;;;;;;;;;;;;;;;;;;2090366;28;44985;-73
2021/06/12 01:53:19;;;;;;;;;;;;;;;;;;2090351;28;44222;-73
2021/06/12 01:54:21;;;;;;;;;;;;;;;;;;2090895;28;46369;-71
2021/06/12 01:55:27;;;;;;;;;;;;;;;;;;2097952;28;46622;-71
2021/06/12 01:56:29;;;;;;;;;;;;;;;;;;2089569;28;45423;-72
2021/06/12 01:57:32;;;;;;;;;;;;;;;;;;2082685;28;45934;-72
2021/06/12 01:58:37;;;;;;;;;;;;;;;;;;2081861;28;46629;-72
2021/06/12 01:59:39;;;;;;;;;;;;;;;;;;2082463;28;45274;-72
2021/06/12 02:00:41;;;;;;;;;;;;;;;;;;2081888;28;45390;-72
2021/06/12 02:01:48;;;;;;;;;;;;;;;;;;2090251;28;45696;-72
2021/06/12 02:02:49;;;;;;;;;;;;;;;;;;2089118;28;45770;-72
2021/06/12 02:03:53;;;;;;;;;;;;;;;;;;2082163;28;44265;-72
2021/06/12 02:04:55;;;;;;;;;;;;;;;;;;2098446;28;46662;-72
2021/06/12 02:05:58;;;;;;;;;;;;;;;;;;2097749;28;45192;-73
2021/06/12 02:07:02;;;;;;;;;;;;;;;;;;2081939;28;45483;-73
2021/06/12 02:08:04;;;;;;;;;;;;;;;;;;2074024;28;45498;-73
2021/06/12 02:09:06;;;;;;;;;;;;;;;;;;2090542;28;46569;-73
2021/06/12 02:10:09;;;;;;;;;;;;;;;;;;2097730;28;45898;-72
2021/06/12 02:11:12;;;;;;;;;;;;;;;;;;2081800;28;47402;-74
2021/06/12 02:12:14;;;;;;;;;;;;;;;;;;2073499;28;43467;-74
2021/06/12 02:13:16;;;;;;;;;;;;;;;;;;2090054;28;47396;-74
2021/06/12 02:14:18;;;;;;;;;;;;;;;;;;2089777;28;47097;-74
2021/06/12 02:15:21;;;;;;;;;;;;;;;;;;2081846;28;46085;-74
2021/06/12 02:16:24;;;;;;;;;;;;;;;;;;2081759;28;47183;-74
2021/06/12 02:17:29;;;;;;;;;;;;;;;;;;2073563;28;45929;-74
2021/06/12 02:18:31;;;;;;;;;;;;;;;;;;2090321;28;46136;-74
2021/06/12 02:19:37;;;;;;;;;;;;;;;;;;2089542;28;47093;-74
2021/06/12 02:20:39;;;;;;;;;;;;;;;;;;2074130;28;45813;-74
2021/06/12 02:21:41;;;;;;;;;;;;;;;;;;2073987;28;44556;-74
2021/06/12 02:22:52;;;;;;;;;;;;;;;;;;2081792;28;44066;-72
2021/06/12 02:23:53;;;;;;;;;;;;;;;;;;2081669;28;45770;-75
2021/06/12 02:24:55;;;;;;;;;;;;;;;;;;2081313;28;45746;-73
2021/06/12 02:25:57;;;;;;;;;;;;;;;;;;2098207;28;45924;-74
2021/06/12 02:26:58;;;;;;;;;;;;;;;;;;2098129;28;45809;-74
2021/06/12 02:28:10;;;;;;;;;;;;;;;;;;2081746;28;47018;-75
2021/06/12 02:29:12;;;;;;;;;;;;;;;;;;2091006;28;46995;-75
2021/06/12 02:30:14;;;;;;;;;;;;;;;;;;2097670;28;46031;-75
2021/06/12 02:31:17;;;;;;;;;;;;;;;;;;2081731;28;46927;-74
2021/06/12 02:32:19;;;;;;;;;;;;;;;;;;2073863;28;45218;-75
2021/06/12 02:33:22;;;;;;;;;;;;;;;;;;2073546;28;44227;-73
2021/06/12 02:34:24;;;;;;;;;;;;;;;;;;2081680;28;44363;-73
2021/06/12 02:35:26;;;;;;;;;;;;;;;;;;2098033;28;44131;-73
2021/06/12 02:36:28;;;;;;;;;;;;;;;;;;2097928;28;45400;-73
2021/06/12 02:37:30;;;;;;;;;;;;;;;;;;2097897;28;45523;-73
2021/06/12 02:38:31;;;;;;;;;;;;;;;;;;2089452;28;45372;-73
2021/06/12 02:39:36;;;;;;;;;;;;;;;;;;2090067;28;45373;-73
2021/06/12 02:40:38;;;;;;;;;;;;;;;;;;2089196;28;46531;-73
2021/06/12 02:41:39;;;;;;;;;;;;;;;;;;2089723;28;43492;-74
2021/06/12 02:42:40;;;;;;;;;;;;;;;;;;2097882;28;44415;-74
2021/06/12 02:43:42;;;;;;;;;;;;;;;;;;2081324;28;44191;-75
2021/06/12 02:44:43;;;;;;;;;;;;;;;;;;2073502;28;44284;-74
2021/06/12 02:45:45;;;;;;;;;;;;;;;;;;2089830;28;45601;-74
2021/06/12 02:46:47;;;;;;;;;;;;;;;;;;2098129;28;45300;-75
2021/06/12 02:47:50;;;;;;;;;;;;;;;;;;2098023;28;43672;-75
2021/06/12 02:48:56;;;;;;;;;;;;;;;;;;2089065;28;45491;-75
2021/06/12 02:49:59;;;;;;;;;;;;;;;;;;2073772;28;45357;-75
2021/06/12 02:51:01;;;;;;;;;;;;;;;;;;2073505;28;44067;-75
2021/06/12 02:52:10;;;;;;;;;;;;;;;;;;2089571;28;44120;-75
2021/06/12 02:53:13;;;;;;;;;;;;;;;;;;2096879;28;45583;-74
2021/06/12 02:54:15;;;;;;;;;;;;;;;;;;2089335;28;43902;-75
2021/06/12 02:55:17;;;;;;;;;;;;;;;;;;2097271;28;46799;-75
2021/06/12 02:56:19;;;;;;;;;;;;;;;;;;2096965;28;46752;-75
2021/06/12 02:57:21;;;;;;;;;;;;;;;;;;2097618;28;45440;-75
2021/06/12 02:58:24;;;;;;;;;;;;;;;;;;2084367;28;45488;-73
2021/06/12 02:59:29;;;;;;;;;;;;;;;;;;2081882;28;45426;-73
2021/06/12 03:00:31;;;;;;;;;;;;;;;;;;2097384;28;45519;-73
2021/06/12 03:01:34;;;;;;;;;;;;;;;;;;2081321;28;43818;-73
2021/06/12 03:02:37;;;;;;;;;;;;;;;;;;2072662;28;45344;-73
2021/06/12 03:03:38;;;;;;;;;;;;;;;;;;2073857;28;45510;-73
2021/06/12 03:04:42;;;;;;;;;;;;;;;;;;2073668;28;46701;-73
2021/06/12 03:05:45;;;;;;;;;;;;;;;;;;2089611;28;45677;-73
2021/06/12 03:06:49;;;;;;;;;;;;;;;;;;2088755;28;45771;-73
2021/06/12 03:07:52;;;;;;;;;;;;;;;;;;2073789;28;46619;-73
2021/06/12 03:08:55;;;;;;;;;;;;;;;;;;2073559;28;45463;-72
2021/06/12 03:09:57;;;;;;;;;;;;;;;;;;2073567;28;45585;-72
2021/06/12 03:10:59;;;;;;;;;;;;;;;;;;2089603;28;46649;-72
2021/06/12 03:12:01;;;;;;;;;;;;;;;;;;2081000;28;45203;-72
2021/06/12 03:13:04;;;;;;;;;;;;;;;;;;2073093;28;43218;-72
2021/06/12 03:14:05;;;;;;;;;;;;;;;;;;2073209;28;45649;-72
2021/06/12 03:15:08;;;;;;;;;;;;;;;;;;2073011;28;45341;-72
2021/06/12 03:16:10;;;;;;;;;;;;;;;;;;2090014;28;45706;-72
2021/06/12 03:17:12;;;;;;;;;;;;;;;;;;2097287;28;47488;-72
2021/06/12 03:18:14;;;;;;;;;;;;;;;;;;2097790;28;47213;-72
2021/06/12 03:19:15;;;;;;;;;;;;;;;;;;2080843;28;45966;-72
2021/06/12 03:20:18;;;;;;;;;;;;;;;;;;2073132;28;47099;-72
2021/06/12 03:21:22;;;;;;;;;;;;;;;;;;2073734;28;45560;-72
2021/06/12 03:22:24;;;;;;;;;;;;;;;;;;2072876;28;45934;-72
2021/06/12 03:23:27;;;;;;;;;;;;;;;;;;2072970;28;45777;-72
2021/06/12 03:24:29;;;;;;;;;;;;;;;;;;2073405;28;45887;-71
2021/06/12 03:25:31;;;;;;;;;;;;;;;;;;2073473;28;46127;-72
2021/06/12 03:26:34;;;;;;;;;;;;;;;;;;2089761;28;46046;-72
2021/06/12 03:27:36;;;;;;;;;;;;;;;;;;2088541;28;45860;-72
2021/06/12 03:28:38;;;;;;;;;;;;;;;;;;2096141;28;45958;-72
2021/06/12 03:29:40;;;;;;;;;;;;;;;;;;2089392;28;45814;-73
2021/06/12 03:30:41;;;;;;;;;;;;;;;;;;2073330;28;47134;-72
2021/06/12 03:31:43;;;;;;;;;;;;;;;;;;2080620;28;47096;-73
2021/06/12 03:32:45;;;;;;;;;;;;;;;;;;2097457;28;46402;-72
2021/06/12 03:33:46;;;;;;;;;;;;;;;;;;2097154;28;46176;-73
2021/06/12 03:34:48;;;;;;;;;;;;;;;;;;2097842;28;47355;-72
2021/06/12 03:35:52;;;;;;;;;;;;;;;;;;2097599;28;44508;-73
2021/06/12 03:36:54;;;;;;;;;;;;;;;;;;2089037;28;46472;-73
2021/06/12 03:37:56;;;;;;;;;;;;;;;;;;2081671;28;45952;-73
2021/06/12 03:38:57;;;;;;;;;;;;;;;;;;2081609;28;45944;-73
2021/06/12 03:40:00;;;;;;;;;;;;;;;;;;2081720;28;42977;-74
2021/06/12 03:41:03;;;;;;;;;;;;;;;;;;2081760;28;43128;-73
2021/06/12 03:42:05;;;;;;;;;;;;;;;;;;2097450;28;44316;-73
2021/06/12 03:43:07;;;;;;;;;;;;;;;;;;2097222;28;46780;-73
2021/06/12 03:44:09;;;;;;;;;;;;;;;;;;2097361;28;44233;-73
2021/06/12 03:45:11;;;;;;;;;;;;;;;;;;2097180;28;44648;-73
2021/06/12 03:46:13;;;;;;;;;;;;;;;;;;2080704;28;44325;-73
2021/06/12 03:47:15;;;;;;;;;;;;;;;;;;2089801;28;42385;-72
2021/06/12 03:48:19;;;;;;;;;;;;;;;;;;2097096;28;44314;-72
2021/06/12 03:49:21;;;;;;;;;;;;;;;;;;2081644;28;45278;-72
2021/06/12 03:50:25;;;;;;;;;;;;;;;;;;2097518;28;45491;-72
2021/06/12 03:51:27;;;;;;;;;;;;;;;;;;2096534;28;44264;-72
2021/06/12 03:52:29;;;;;;;;;;;;;;;;;;2081481;28;45584;-72
2021/06/12 03:53:31;;;;;;;;;;;;;;;;;;2081440;28;44521;-73
2021/06/12 03:54:34;;;;;;;;;;;;;;;;;;2080985;28;44200;-72
2021/06/12 03:55:36;;;;;;;;;;;;;;;;;;2073228;28;44569;-73
2021/06/12 03:56:38;;;;;;;;;;;;;;;;;;2080924;28;45560;-72
2021/06/12 03:57:43;;;;;;;;;;;;;;;;;;2097561;28;44284;-73
2021/06/12 03:58:46;;;;;;;;;;;;;;;;;;2096291;28;45472;-72
2021/06/12 03:59:47;;;;;;;;;;;;;;;;;;2081799;28;46035;-73
2021/06/12 04:00:49;;;;;;;;;;;;;;;;;;2097710;28;44259;-72
2021/06/12 04:01:50;;;;;;;;;;;;;;;;;;2096107;28;45641;-73
2021/06/12 04:02:52;;;;;;;;;;;;;;;;;;2097357;28;46425;-73
2021/06/12 04:03:53;;;;;;;;;;;;;;;;;;2097035;28;46027;-73
2021/06/12 04:04:57;;;;;;;;;;;;;;;;;;2081658;28;44030;-72
2021/06/12 04:05:58;;;;;;;;;;;;;;;;;;2097428;28;44065;-73
2021/06/12 04:07:00;;;;;;;;;;;;;;;;;;2097225;28;46605;-72
2021/06/12 04:08:01;;;;;;;;;;;;;;;;;;2097642;28;46633;-72
2021/06/12 04:09:06;;;;;;;;;;;;;;;;;;2096228;28;45333;-73
2021/06/12 04:10:08;;;;;;;;;;;;;;;;;;2088741;28;45711;-72
2021/06/12 04:11:09;;;;;;;;;;;;;;;;;;2081248;28;45865;-72
2021/06/12 04:12:13;;;;;;;;;;;;;;;;;;2080796;28;45426;-71
2021/06/12 04:13:14;;;;;;;;;;;;;;;;;;2073197;28;45366;-72
2021/06/12 04:14:16;;;;;;;;;;;;;;;;;;2089118;28;45383;-73
2021/06/12 04:15:17;;;;;;;;;;;;;;;;;;2097213;28;46526;-73
2021/06/12 04:16:19;;;;;;;;;;;;;;;;;;2097116;28;46823;-72
2021/06/12 04:17:20;;;;;;;;;;;;;;;;;;2097322;28;45457;-72
2021/06/12 04:18:22;;;;;;;;;;;;;;;;;;2081663;28;46681;-72
2021/06/12 04:19:23;;;;;;;;;;;;;;;;;;2081321;28;46481;-73
2021/06/12 04:20:24;;;;;;;;;;;;;;;;;;2081917;28;45372;-73
2021/06/12 04:21:26;;;;;;;;;;;;;;;;;;2081164;28;45317;-73
2021/06/12 04:22:27;;;;;;;;;;;;;;;;;;2081868;28;45493;-73
2021/06/12 04:23:32;;;;;;;;;;;;;;;;;;2081152;28;45863;-73
2021/06/12 04:24:34;;;;;;;;;;;;;;;;;;2097509;28;45036;-72
2021/06/12 04:25:35;;;;;;;;;;;;;;;;;;2088813;28;45812;-73
2021/06/12 04:26:37;;;;;;;;;;;;;;;;;;2089286;28;46984;-72
2021/06/12 04:27:39;;;;;;;;;;;;;;;;;;2097070;28;47114;-72
2021/06/12 04:28:40;;;;;;;;;;;;;;;;;;2089894;28;47063;-72
2021/06/12 04:29:42;;;;;;;;;;;;;;;;;;2088968;28;47066;-72
2021/06/12 04:30:43;;;;;;;;;;;;;;;;;;2088893;28;46423;-72
2021/06/12 04:31:45;;;;;;;;;;;;;;;;;;2080506;28;44732;-72
2021/06/12 04:32:47;;;;;;;;;;;;;;;;;;2068313;28;47028;-73
2021/06/12 04:33:48;;;;;;;;;;;;;;;;;;2080708;28;47056;-73
2021/06/12 04:34:50;;;;;;;;;;;;;;;;;;2072274;28;45862;-73
2021/06/12 04:35:51;;;;;;;;;;;;;;;;;;2080759;28;45841;-73
2021/06/12 04:36:53;;;;;;;;;;;;;;;;;;2089279;28;45857;-73
2021/06/12 04:37:58;;;;;;;;;;;;;;;;;;2080579;28;46203;-73
2021/06/12 04:39:00;;;;;;;;;;;;;;;;;;2072963;28;45763;-73
2021/06/12 04:40:01;;;;;;;;;;;;;;;;;;2073119;28;45914;-73
2021/06/12 04:41:02;;;;;;;;;;;;;;;;;;2072441;28;45932;-73
2021/06/12 04:42:04;;;;;;;;;;;;;;;;;;2080749;28;46981;-73
2021/06/12 04:43:07;;;;;;;;;;;;;;;;;;2080629;28;46202;-73
2021/06/12 04:44:08;;;;;;;;;;;;;;;;;;2064731;28;47277;-74
2021/06/12 04:45:10;;;;;;;;;;;;;;;;;;2080949;28;47071;-73
2021/06/12 04:46:11;;;;;;;;;;;;;;;;;;2088673;28;44389;-74
2021/06/12 04:47:13;;;;;;;;;;;;;;;;;;2072475;28;44544;-74
2021/06/12 04:48:14;;;;;;;;;;;;;;;;;;2080906;28;47187;-74
2021/06/12 04:49:16;;;;;;;;;;;;;;;;;;2088595;28;43261;-73
2021/06/12 04:50:17;;;;;;;;;;;;;;;;;;2089012;28;44331;-73
2021/06/12 04:51:18;;;;;;;;;;;;;;;;;;2080498;28;44458;-73
2021/06/12 04:52:20;;;;;;;;;;;;;;;;;;2080576;28;45401;-73
2021/06/12 04:53:21;;;;;;;;;;;;;;;;;;2088349;28;43714;-74
2021/06/12 04:54:23;;;;;;;;;;;;;;;;;;2072585;28;45506;-73
2021/06/12 04:55:24;;;;;;;;;;;;;;;;;;2072369;28;45127;-73
2021/06/12 04:56:26;;;;;;;;;;;;;;;;;;2072519;28;45376;-73
2021/06/12 04:57:27;;;;;;;;;;;;;;;;;;2064517;28;42922;-72
2021/06/12 04:58:29;;;;;;;;;;;;;;;;;;2080703;28;45917;-72
2021/06/12 04:59:33;;;;;;;;;;;;;;;;;;2079792;28;46150;-72
2021/06/12 05:00:35;;;;;;;;;;;;;;;;;;2080886;28;44188;-71
2021/06/12 05:01:36;;;;;;;;;;;;;;;;;;2088553;28;44672;-72
2021/06/12 05:02:39;;;;;;;;;;;;;;;;;;2091463;28;44685;-72
2021/06/12 05:03:40;;;;;;;;;;;;;;;;;;2096555;28;42759;-71
2021/06/12 05:04:42;;;;;;;;;;;;;;;;;;2081247;28;42912;-72
2021/06/12 05:05:43;;;;;;;;;;;;;;;;;;2097061;28;45145;-72
2021/06/12 05:06:44;;;;;;;;;;;;;;;;;;2089295;28;42738;-72
2021/06/12 05:07:46;;;;;;;;;;;;;;;;;;2080189;28;44140;-71
2021/06/12 05:08:47;;;;;;;;;;;;;;;;;;2080671;28;45434;-72
2021/06/12 05:09:49;;;;;;;;;;;;;;;;;;2072205;28;45438;-72
2021/06/12 05:10:50;;;;;;;;;;;;;;;;;;2080706;28;45501;-73
2021/06/12 05:11:52;;;;;;;;;;;;;;;;;;2097058;28;44451;-73
2021/06/12 05:12:53;;;;;;;;;;;;;;;;;;2096475;28;44852;-73
2021/06/12 05:13:55;;;;;;;;;;;;;;;;;;2080469;28;45242;-73
2021/06/12 05:14:59;;;;;;;;;;;;;;;;;;2081412;28;44688;-73
2021/06/12 05:16:01;;;;;;;;;;;;;;;;;;2096925;28;46535;-73
2021/06/12 05:17:04;;;;;;;;;;;;;;;;;;2088700;28;45752;-74
2021/06/12 05:18:06;;;;;;;;;;;;;;;;;;2089063;28;44298;-73
2021/06/12 05:19:08;;;;;;;;;;;;;;;;;;2096644;28;44046;-73
2021/06/12 05:20:10;;;;;;;;;;;;;;;;;;2097167;28;44163;-73
2021/06/12 05:21:15;;;;;;;;;;;;;;;;;;2088683;28;45481;-73
2021/06/12 05:22:20;;;;;;;;;;;;;;;;;;2072577;28;45401;-71
2021/06/12 05:23:21;;;;;;;;;;;;;;;;;;2080610;28;45403;-73
2021/06/12 05:24:23;;;;;;;;;;;;;;;;;;2081461;28;45803;-73
2021/06/12 05:25:27;;;;;;;;;;;;;;;;;;2080665;28;45702;-73
2021/06/12 05:26:28;;;;;;;;;;;;;;;;;;2079080;28;45486;-74
2021/06/12 05:27:30;;;;;;;;;;;;;;;;;;2081154;28;46530;-74
2021/06/12 05:28:31;;;;;;;;;;;;;;;;;;2080953;28;45363;-74
2021/06/12 05:29:33;;;;;;;;;;;;;;;;;;2088728;28;47124;-74
2021/06/12 05:30:35;;;;;;;;;;;;;;;;;;2088031;28;46142;-74
2021/06/12 05:31:36;;;;;;;;;;;;;;;;;;2088874;28;45792;-74
2021/06/12 05:32:37;;;;;;;;;;;;;;;;;;2088471;28;45462;-72
2021/06/12 05:33:39;;;;;;;;;;;;;;;;;;2080238;28;44425;-72
2021/06/12 05:34:41;;;;;;;;;;;;;;;;;;2072826;28;47427;-72
2021/06/12 05:35:42;;;;;;;;;;;;;;;;;;2088644;28;46860;-72
2021/06/12 05:36:44;;;;;;;;;;;;;;;;;;2088325;28;47476;-73
2021/06/12 05:37:45;;;;;;;;;;;;;;;;;;2080147;28;45108;-71
2021/06/12 05:38:46;;;;;;;;;;;;;;;;;;2072629;28;45831;-71
2021/06/12 05:39:48;;;;;;;;;;;;;;;;;;2073011;28;44286;-71
2021/06/12 05:40:49;;;;;;;;;;;;;;;;;;2079444;28;46159;-72
2021/06/12 05:41:50;;;;;;;;;;;;;;;;;;2080857;28;46102;-71
2021/06/12 05:42:52;;;;;;;;;;;;;;;;;;2079978;28;44602;-71
2021/06/12 05:43:54;;;;;;;;;;;;;;;;;;2072430;28;44936;-71
2021/06/12 05:44:56;;;;;;;;;;;;;;;;;;2074151;28;47192;-72
2021/06/12 05:45:57;;;;;;;;;;;;;;;;;;2085784;28;47525;-72
2021/06/12 05:46:59;;;;;;;;;;;;;;;;;;2097404;28;45769;-72
2021/06/12 05:48:01;;;;;;;;;;;;;;;;;;2081691;28;44404;-71
2021/06/12 05:49:02;;;;;;;;;;;;;;;;;;2073638;28;41940;-71
2021/06/12 05:50:04;;;;;;;;;;;;;;;;;;2074579;28;42552;-73
2021/06/12 05:51:06;;;;;;;;;;;;;;;;;;2073716;28;46161;-71
2021/06/12 05:52:07;;;;;;;;;;;;;;;;;;2081736;28;41727;-70
2021/06/12 05:53:09;;;;;;;;;;;;;;;;;;2080706;28;42124;-71
2021/06/12 05:54:10;;;;;;;;;;;;;;;;;;2073283;28;44349;-72
2021/06/12 05:55:17;;;;;;;;;;;;;;;;;;2072116;28;44794;-76
2021/06/12 05:56:24;;;;;;;;;;;;;;;;;;2080823;28;43314;-71
2021/06/12 05:57:37;;;;;;;;;;;;;;;;;;2073500;28;43620;-71
2021/06/12 05:58:39;;;;;;;;;;;;;;;;;;2082218;28;45132;-71
2021/06/12 06:01:20;;;;;;;;;;;;;;;;;;2084009;28;44170;-71
2021/06/12 06:02:28;;;;;;;;;;;;;;;;;;2080144;28;44508;-71
2021/06/12 06:03:29;;;;;;;;;;;;;;;;;;2079917;28;44567;-71
2021/06/12 06:04:32;;;;;;;;;;;;;;;;;;2080380;28;41533;-71
2021/06/12 06:05:34;;;;;;;;;;;;;;;;;;2080095;28;44521;-71
2021/06/12 06:06:35;;;;;;;;;;;;;;;;;;2080926;28;42802;-71
2021/06/12 06:07:46;;;;;;;;;;;;;;;;;;2096289;28;44518;-71
2021/06/12 06:08:49;;;;;;;;;;;;;;;;;;2086820;28;46267;-71
2021/06/12 06:09:50;;;;;;;;;;;;;;;;;;2072671;28;43375;-72
2021/06/12 06:10:53;;;;;;;;;;;;;;;;;;2080118;28;43344;-72
2021/06/12 06:11:57;;;;;;;;;;;;;;;;;;2097028;28;42982;-72
2021/06/12 06:13:04;;;;;;;;;;;;;;;;;;2088165;28;44205;-72
2021/06/12 06:14:07;;;;;;;;;;;;;;;;;;2073504;28;42381;-72
2021/06/12 06:15:10;;;;;;;;;;;;;;;;;;2072252;28;44179;-72
2021/06/12 06:16:12;;;;;;;;;;;;;;;;;;2080370;28;46808;-72
2021/06/12 06:17:14;;;;;;;;;;;;;;;;;;2097763;28;44143;-72
2021/06/12 06:18:18;;;;;;;;;;;;;;;;;;2097238;28;45272;-72
2021/06/12 06:19:20;;;;;;;;;;;;;;;;;;2080500;28;44887;-72
2021/06/12 06:20:22;;;;;;;;;;;;;;;;;;2089167;28;46521;-72
2021/06/12 06:21:27;;;;;;;;;;;;;;;;;;2096607;28;45426;-72
2021/06/12 06:22:28;;;;;;;;;;;;;;;;;;2081144;28;46482;-72
2021/06/12 06:23:29;;;;;;;;;;;;;;;;;;2081032;28;46516;-72
2021/06/12 06:24:31;;;;;;;;;;;;;;;;;;2097741;28;46817;-72
2021/06/12 06:25:32;;;;;;;;;;;;;;;;;;2098818;28;44951;-69
2021/06/12 06:26:34;;;;;;;;;;;;;;;;;;2082700;28;45301;-73
2021/06/12 06:27:35;;;;;;;;;;;;;;;;;;2082564;28;46445;-74
2021/06/12 06:28:37;;;;;;;;;;;;;;;;;;2082151;28;42320;-71
2021/06/12 06:29:39;;;;;;;;;;;;;;;;;;2089073;28;46583;-73
2021/06/12 06:30:40;;;;;;;;;;;;;;;;;;2082338;28;45460;-72
2021/06/12 06:31:44;;;;;;;;;;;;;;;;;;2081244;28;44657;-72
2021/06/12 06:32:47;;;;;;;;;;;;;;;;;;2074411;28;45612;-71
2021/06/12 06:33:49;;;;;;;;;;;;;;;;;;2086184;28;42604;-72
2021/06/12 06:34:51;;;;;;;;;;;;;;;;;;2081903;28;44741;-71
2021/06/12 06:36:01;;;;;;;;;;;;;;;;;;2082156;28;42489;-72
2021/06/12 06:37:08;;;;;;;;;;;;;;;;;;2085471;28;47418;-72
2021/06/12 06:38:10;;;;;;;;;;;;;;;;;;2075258;28;44502;-72
2021/06/12 06:39:12;;;;;;;;;;;;;;;;;;2074601;28;44983;-71
2021/06/12 06:40:13;;;;;;;;;;;;;;;;;;2072968;28;47486;-71
2021/06/12 06:41:15;;;;;;;;;;;;;;;;;;2081607;28;46243;-72
2021/06/12 06:42:16;;;;;;;;;;;;;;;;;;2097819;28;46255;-72
2021/06/12 06:43:18;;;;;;;;;;;;;;;;;;2089091;28;45877;-72
2021/06/12 06:44:19;;;;;;;;;;;;;;;;;;2073551;28;46934;-71
2021/06/12 06:45:21;;;;;;;;;;;;;;;;;;2073241;28;45770;-72
2021/06/12 06:46:23;;;;;;;;;;;;;;;;;;2073389;28;47011;-72
2021/06/12 06:47:24;;;;;;;;;;;;;;;;;;2073078;28;46355;-72
2021/06/12 06:48:27;;;;;;;;;;;;;;;;;;2073866;28;46097;-72
2021/06/12 06:49:29;;;;;;;;;;;;;;;;;;2073512;28;46443;-71
2021/06/12 06:50:30;;;;;;;;;;;;;;;;;;2073806;28;47237;-72
2021/06/12 06:51:32;;;;;;;;;;;;;;;;;;2089091;28;46144;-71
2021/06/12 06:52:33;;;;;;;;;;;;;;;;;;2097818;28;43151;-71
2021/06/12 06:53:35;;;;;;;;;;;;;;;;;;2089255;28;45686;-70
2021/06/12 06:54:36;;;;;;;;;;;;;;;;;;2073895;28;45748;-71
2021/06/12 06:55:38;;;;;;;;;;;;;;;;;;2086935;28;44973;-71
2021/06/12 06:56:39;;;;;;;;;;;;;;;;;;2080653;28;44540;-72
2021/06/12 06:57:40;;;;;;;;;;;;;;;;;;2080474;28;45955;-71
2021/06/12 06:58:42;;;;;;;;;;;;;;;;;;2080608;28;47233;-72
2021/06/12 06:59:43;;;;;;;;;;;;;;;;;;2073180;28;42888;-72
2021/06/12 07:00:44;;;;;;;;;;;;;;;;;;2089422;28;46345;-71
2021/06/12 07:01:46;;;;;;;;;;;;;;;;;;2089309;28;45419;-71
2021/06/12 07:02:48;;;;;;;;;;;;;;;;;;2077440;28;44326;-72
2021/06/12 07:03:49;;;;;;;;;;;;;;;;;;2097707;28;45502;-72
2021/06/12 07:04:51;;;;;;;;;;;;;;;;;;2089433;28;45502;-72
2021/06/12 07:05:53;;;;;;;;;;;;;;;;;;2081201;28;45626;-72
2021/06/12 07:06:54;;;;;;;;;;;;;;;;;;2097849;28;44266;-73
2021/06/12 07:07:56;;;;;;;;;;;;;;;;;;2097747;28;45344;-73
2021/06/12 07:08:57;;;;;;;;;;;;;;;;;;2097717;28;45780;-73